createdAt,value
2024-01-19T00:00:34.076Z,10.07
2024-01-19T00:03:04.153Z,9.10
2024-01-19T00:05:34.550Z,12.07
2024-01-19T00:08:07.887Z,10.95
2024-01-19T00:10:37.991Z,14.27
2024-01-19T00:13:08.972Z,7.97
2024-01-19T00:15:42.402Z,10.52
2024-01-19T00:18:13.326Z,10.30
2024-01-19T00:20:43.551Z,10.40
2024-01-19T00:23:16.249Z,10.07
2024-01-19T00:25:46.391Z,8.82
2024-01-19T00:28:16.477Z,8.82
2024-01-19T00:30:46.781Z,10.60
2024-01-19T00:33:17.263Z,9.88
2024-01-19T00:35:47.656Z,9.25
2024-01-19T00:38:20.468Z,12.07
2024-01-19T00:40:50.556Z,8.20
2024-01-19T00:43:20.638Z,11.32
2024-01-19T00:45:51.673Z,12.07
2024-01-19T00:48:21.832Z,18.27
2024-01-19T00:50:52.036Z,7.80
2024-01-19T00:53:24.877Z,10.10
2024-01-19T00:55:55.003Z,6.88
2024-01-19T00:58:25.092Z,6.77
2024-01-19T01:00:55.498Z,7.90
2024-01-19T01:03:26.648Z,7.95
2024-01-19T01:05:58.595Z,6.93
2024-01-19T01:08:31.635Z,13.57
2024-01-19T01:11:01.793Z,7.40
2024-01-19T01:13:31.931Z,6.00
2024-01-19T01:16:02.346Z,9.20
2024-01-19T01:18:32.544Z,11.73
2024-01-19T01:21:03.022Z,5.38
2024-01-19T01:23:35.788Z,10.77
2024-01-19T01:26:07.236Z,14.95
2024-01-19T01:28:37.465Z,10.38
2024-01-19T01:31:07.935Z,9.30
2024-01-19T01:33:38.234Z,4.85
2024-01-19T01:36:08.885Z,13.88
2024-01-19T01:38:41.763Z,7.55
2024-01-19T01:41:11.930Z,10.10
2024-01-19T01:43:42.014Z,5.80
2024-01-19T01:46:12.107Z,10.30
2024-01-19T01:48:42.554Z,16.08
2024-01-19T01:51:13.426Z,6.93
2024-01-19T01:53:46.222Z,6.85
2024-01-19T01:56:16.510Z,4.47
2024-01-19T01:58:47.207Z,6.40
2024-01-19T02:01:17.621Z,7.73
2024-01-19T02:03:48.842Z,9.33
2024-01-19T02:06:19.227Z,10.07
2024-01-19T02:08:52.180Z,5.90
2024-01-19T02:11:22.353Z,10.87
2024-01-19T02:13:52.501Z,8.30
2024-01-19T02:16:22.583Z,11.23
2024-01-19T02:18:52.883Z,12.45
2024-01-19T02:21:23.308Z,10.55
2024-01-19T02:24:03.300Z,9.88
2024-01-19T02:26:39.876Z,6.68
2024-01-19T02:29:10.100Z,8.32
2024-01-19T02:31:40.289Z,8.10
2024-01-19T02:34:10.462Z,9.90
2024-01-19T02:36:40.568Z,6.93
2024-01-19T02:39:10.778Z,10.70
2024-01-19T02:41:44.012Z,7.72
2024-01-19T02:44:14.160Z,8.30
2024-01-19T02:46:44.222Z,14.68
2024-01-19T02:49:14.376Z,10.33
2024-01-19T02:51:44.443Z,6.72
2024-01-19T02:54:14.537Z,10.07
2024-01-19T02:56:47.341Z,11.88
2024-01-19T02:59:17.707Z,9.95
2024-01-19T03:01:47.939Z,8.50
2024-01-19T03:04:17.973Z,6.47
2024-01-19T03:06:48.208Z,5.45
2024-01-19T03:09:18.337Z,7.28
2024-01-19T03:11:51.153Z,9.00
2024-01-19T03:14:21.330Z,7.75
2024-01-19T03:16:52.575Z,15.15
2024-01-19T03:19:22.736Z,8.63
2024-01-19T03:21:52.813Z,6.22
2024-01-19T03:24:22.862Z,5.78
2024-01-19T03:26:53.013Z,8.82
2024-01-19T03:29:24.364Z,5.93
2024-01-19T03:31:55.429Z,6.10
2024-01-19T03:34:26.792Z,6.90
2024-01-19T03:36:56.911Z,11.37
2024-01-19T03:39:27.207Z,6.13
2024-01-19T03:42:00.075Z,9.88
2024-01-19T03:44:30.407Z,8.65
2024-01-19T03:47:01.137Z,7.90
2024-01-19T03:49:31.346Z,6.72
2024-01-19T03:52:02.741Z,9.50
2024-01-19T03:54:33.873Z,6.93
2024-01-19T03:57:09.067Z,5.25
2024-01-19T03:59:39.181Z,9.68
2024-01-19T04:02:09.481Z,13.73
2024-01-19T04:04:39.731Z,7.25
2024-01-19T04:07:09.948Z,5.88
2024-01-19T04:09:40.049Z,6.70
2024-01-19T04:12:17.648Z,7.15
2024-01-19T04:14:48.985Z,9.20
2024-01-19T04:17:19.238Z,13.65
2024-01-19T04:19:49.321Z,9.32
2024-01-19T04:22:19.393Z,7.10
2024-01-19T04:24:49.519Z,5.00
2024-01-19T04:27:22.233Z,4.53
2024-01-19T04:29:52.401Z,7.10
2024-01-19T04:32:22.525Z,15.55
2024-01-19T04:34:52.614Z,6.32
2024-01-19T04:37:22.745Z,8.60
2024-01-19T04:39:52.809Z,11.55
2024-01-19T04:42:25.564Z,7.47
2024-01-19T04:44:55.652Z,8.40
2024-01-19T04:47:25.809Z,8.45
2024-01-19T04:49:56.081Z,8.50
2024-01-19T04:52:26.184Z,6.18
2024-01-19T04:54:56.271Z,8.75
2024-01-19T04:57:28.987Z,7.80
2024-01-19T04:59:59.091Z,8.45
2024-01-19T05:02:31.239Z,5.93
2024-01-19T05:05:01.735Z,8.30
2024-01-19T05:07:31.872Z,8.40
2024-01-19T05:10:01.908Z,11.05
2024-01-19T05:12:34.615Z,7.75
2024-01-19T05:15:04.977Z,6.25
2024-01-19T05:17:35.125Z,11.25
2024-01-19T05:20:05.329Z,7.60
2024-01-19T05:22:35.454Z,11.80
2024-01-19T05:25:05.618Z,8.88
2024-01-19T05:27:38.348Z,11.77
2024-01-19T05:30:10.306Z,8.93
2024-01-19T05:32:40.448Z,9.20
2024-01-19T05:35:10.847Z,11.90
2024-01-19T05:37:41.805Z,6.55
2024-01-19T05:40:12.646Z,8.23
2024-01-19T05:42:45.499Z,10.73
2024-01-19T05:45:16.362Z,5.72
2024-01-19T05:47:46.699Z,11.63
2024-01-19T05:50:16.972Z,8.00
2024-01-19T05:52:48.799Z,12.70
2024-01-19T05:55:18.908Z,8.45
2024-01-19T05:57:51.630Z,9.38
2024-01-19T06:00:22.491Z,12.05
2024-01-19T06:02:52.720Z,8.15
2024-01-19T06:05:22.959Z,8.13
2024-01-19T06:07:53.012Z,9.60
2024-01-19T06:10:23.132Z,9.15
2024-01-19T06:12:55.772Z,12.23
2024-01-19T06:15:25.860Z,9.90
2024-01-19T06:17:55.978Z,12.45
2024-01-19T06:20:26.046Z,9.48
2024-01-19T06:22:56.287Z,13.32
2024-01-19T06:25:26.425Z,10.70
2024-01-19T06:28:01.635Z,16.55
2024-01-19T06:30:31.839Z,12.05
2024-01-19T06:33:03.194Z,24.80
2024-01-19T06:35:33.399Z,13.15
2024-01-19T06:38:04.619Z,14.85
2024-01-19T06:40:35.309Z,18.60
2024-01-19T06:43:08.408Z,10.95
2024-01-19T06:45:38.447Z,15.57
2024-01-19T06:48:08.976Z,14.05
2024-01-19T06:50:39.124Z,14.60
2024-01-19T06:53:09.239Z,15.05
2024-01-19T06:55:39.344Z,16.83
2024-01-19T06:58:12.060Z,15.25
2024-01-19T07:00:42.204Z,17.80
2024-01-19T07:03:12.618Z,17.23
2024-01-19T07:05:48.123Z,10.75
2024-01-19T07:08:18.475Z,18.65
2024-01-19T07:10:49.914Z,19.67
2024-01-19T07:13:22.631Z,13.77
2024-01-19T07:15:52.770Z,15.15
2024-01-19T07:18:22.949Z,13.05
2024-01-19T07:20:53.156Z,17.15
2024-01-19T07:23:23.371Z,15.63
2024-01-19T07:25:53.503Z,15.65
2024-01-19T07:28:26.642Z,15.52
2024-01-19T07:30:56.758Z,14.05
2024-01-19T07:33:32.455Z,11.98
2024-01-19T07:36:03.724Z,11.80
2024-01-19T07:38:34.108Z,19.65
2024-01-19T07:41:07.671Z,20.70
2024-01-19T07:43:40.441Z,12.02
2024-01-19T07:46:12.519Z,16.83
2024-01-19T07:48:42.740Z,14.13
2024-01-19T07:51:12.923Z,16.88
2024-01-19T07:53:43.000Z,15.43
2024-01-19T07:56:13.149Z,14.52
2024-01-19T07:58:48.976Z,27.33
2024-01-19T08:01:19.195Z,20.35
2024-01-19T08:03:49.497Z,12.90
2024-01-19T08:06:19.762Z,15.80
2024-01-19T08:08:49.924Z,18.45
2024-01-19T08:11:20.131Z,21.77
2024-01-19T08:13:52.876Z,14.82
2024-01-19T08:16:23.107Z,16.77
2024-01-19T08:18:53.417Z,18.27
2024-01-19T08:21:23.663Z,15.10
2024-01-19T08:23:53.770Z,15.20
2024-01-19T08:26:24.020Z,21.65
2024-01-19T08:28:56.767Z,20.48
2024-01-19T08:31:26.937Z,17.50
2024-01-19T08:33:57.470Z,24.70
2024-01-19T08:36:27.992Z,18.77
2024-01-19T08:38:58.329Z,23.10
2024-01-19T08:41:28.872Z,14.75
2024-01-19T08:44:01.764Z,24.05
2024-01-19T08:46:31.816Z,20.70
2024-01-19T08:49:01.996Z,25.42
2024-01-19T08:51:32.349Z,23.25
2024-01-19T08:54:02.497Z,17.85
2024-01-19T08:56:32.666Z,20.95
2024-01-19T08:59:05.470Z,21.23
2024-01-19T09:01:35.634Z,26.63
2024-01-19T09:04:05.975Z,22.85
2024-01-19T09:06:36.338Z,23.30
2024-01-19T09:09:06.687Z,21.80
2024-01-19T09:11:37.618Z,23.42
2024-01-19T09:14:12.684Z,17.50
2024-01-19T09:16:45.827Z,19.35
2024-01-19T09:19:16.601Z,16.60
2024-01-19T09:21:49.040Z,20.80
2024-01-19T09:24:19.173Z,18.75
2024-01-19T09:26:49.295Z,19.05
2024-01-19T09:29:22.129Z,20.42
2024-01-19T09:31:52.266Z,17.40
2024-01-19T09:34:22.383Z,19.63
2024-01-19T09:36:52.531Z,16.52
2024-01-19T09:39:24.425Z,19.03
2024-01-19T09:41:59.036Z,20.17
2024-01-19T09:44:37.821Z,16.63
2024-01-19T09:47:21.444Z,18.57
2024-01-19T09:50:05.047Z,20.07
2024-01-19T09:52:45.958Z,16.90
2024-01-19T09:55:16.115Z,19.27
2024-01-19T09:57:49.446Z,15.20
2024-01-19T10:00:24.675Z,19.07
2024-01-19T10:03:00.969Z,20.77
2024-01-19T10:05:33.944Z,17.50
2024-01-19T10:08:04.138Z,22.50
2024-01-19T10:10:34.208Z,20.53
2024-01-19T10:13:04.266Z,23.23
2024-01-19T10:15:37.020Z,21.20
2024-01-19T10:18:07.945Z,18.57
2024-01-19T10:20:39.845Z,21.23
2024-01-19T10:23:31.169Z,23.60
2024-01-19T10:26:16.357Z,19.80
2024-01-19T10:28:46.494Z,28.27
2024-01-19T10:31:20.102Z,31.50
2024-01-19T10:33:59.100Z,22.95
2024-01-19T10:36:29.493Z,25.80
2024-01-19T10:39:19.519Z,26.23
2024-01-19T10:41:50.012Z,23.07
2024-01-19T10:44:21.607Z,33.60
2024-01-19T10:46:54.430Z,21.77
2024-01-19T10:49:24.507Z,22.03
2024-01-19T10:51:54.727Z,20.03
2024-01-19T10:54:29.239Z,22.77
2024-01-19T10:57:07.435Z,19.63
2024-01-19T10:59:38.598Z,26.50
2024-01-19T11:02:11.427Z,25.57
2024-01-19T11:04:41.934Z,19.23
2024-01-19T11:07:12.210Z,23.77
2024-01-19T11:09:42.392Z,17.03
2024-01-19T11:12:15.466Z,21.20
2024-01-19T11:14:48.270Z,16.33
2024-01-19T11:17:21.270Z,14.70
2024-01-19T11:19:51.371Z,16.10
2024-01-19T11:22:21.897Z,17.47
2024-01-19T11:24:57.044Z,15.17
2024-01-19T11:27:34.290Z,20.03
2024-01-19T11:30:18.196Z,18.30
2024-01-19T11:32:51.635Z,19.75
2024-01-19T11:35:42.627Z,18.43
2024-01-19T11:38:12.740Z,22.07
2024-01-19T11:40:52.042Z,16.90
2024-01-19T11:43:41.071Z,19.90
2024-01-19T11:46:11.682Z,23.50
2024-01-19T11:48:45.853Z,19.73
2024-01-19T11:51:35.892Z,17.43
2024-01-19T11:54:08.105Z,19.93
2024-01-19T11:56:39.306Z,20.33
2024-01-19T11:59:09.482Z,21.03
2024-01-19T12:01:44.014Z,18.10
2024-01-19T12:04:18.752Z,17.90
2024-01-19T12:06:49.026Z,18.90
2024-01-19T12:09:20.620Z,18.47
2024-01-19T12:11:51.421Z,18.77
2024-01-19T12:14:21.555Z,18.93
2024-01-19T12:16:51.677Z,13.70
2024-01-19T12:19:24.447Z,21.07
2024-01-19T12:21:55.047Z,22.07
2024-01-19T12:24:25.960Z,23.10
2024-01-19T12:26:56.693Z,20.87
2024-01-19T12:29:33.963Z,22.67
2024-01-19T12:32:13.894Z,21.65
2024-01-19T12:35:00.484Z,15.40
2024-01-19T12:37:30.928Z,21.57
2024-01-19T12:40:15.116Z,20.60
2024-01-19T12:42:45.564Z,21.50
2024-01-19T12:45:16.360Z,19.13
2024-01-19T12:47:49.794Z,19.97
2024-01-19T12:50:24.237Z,20.83
2024-01-19T12:52:54.930Z,25.30
2024-01-19T12:55:32.139Z,19.53
2024-01-19T12:58:03.362Z,17.53
2024-01-19T13:00:34.948Z,22.00
2024-01-19T13:03:06.625Z,20.90
2024-01-19T13:05:37.297Z,20.23
2024-01-19T13:08:11.859Z,21.67
2024-01-19T13:10:42.415Z,23.03
2024-01-19T13:13:13.793Z,19.97
2024-01-19T13:15:43.864Z,19.37
2024-01-19T13:18:17.033Z,24.80
2024-01-19T13:20:49.941Z,23.30
2024-01-19T13:23:20.091Z,27.43
2024-01-19T13:25:56.655Z,23.50
2024-01-19T13:28:26.824Z,19.67
2024-01-19T13:30:57.136Z,23.63
2024-01-19T13:33:27.304Z,24.33
2024-01-19T13:36:00.059Z,26.37
2024-01-19T13:38:30.212Z,22.33
2024-01-19T13:41:00.709Z,25.03
2024-01-19T13:43:31.015Z,23.20
2024-01-19T13:46:01.087Z,21.10
2024-01-19T13:48:31.197Z,20.93
2024-01-19T13:51:04.238Z,28.77
2024-01-19T13:53:34.298Z,18.27
2024-01-19T13:56:04.895Z,17.10
2024-01-19T13:58:35.181Z,19.07
2024-01-19T14:01:05.498Z,17.27
2024-01-19T14:03:37.614Z,29.03
2024-01-19T14:06:10.881Z,17.60
2024-01-19T14:08:41.010Z,20.13
2024-01-19T14:11:11.298Z,25.30
2024-01-19T14:13:41.552Z,27.20
2024-01-19T14:16:11.736Z,17.00
2024-01-19T14:18:41.813Z,23.50
2024-01-19T14:21:14.986Z,24.00
2024-01-19T14:23:45.096Z,15.17
2024-01-19T14:26:15.762Z,23.23
2024-01-19T14:28:46.003Z,18.67
2024-01-19T14:31:16.245Z,20.70
2024-01-19T14:33:46.911Z,19.73
2024-01-19T14:36:19.586Z,19.07
2024-01-19T14:38:49.628Z,21.07
2024-01-19T14:41:19.793Z,20.07
2024-01-19T14:43:49.994Z,27.33
2024-01-19T14:46:20.560Z,16.60
2024-01-19T14:48:50.660Z,22.50
2024-01-19T14:51:23.808Z,25.43
2024-01-19T14:53:54.579Z,21.00
2024-01-19T14:56:24.952Z,21.20
2024-01-19T14:58:55.069Z,20.43
2024-01-19T15:01:25.213Z,21.73
2024-01-19T15:03:55.417Z,24.23
2024-01-19T15:06:28.117Z,22.00
2024-01-19T15:08:58.232Z,32.23
2024-01-19T15:11:28.437Z,19.00
2024-01-19T15:13:58.600Z,28.37
2024-01-19T15:16:28.886Z,20.43
2024-01-19T15:19:02.168Z,22.73
2024-01-19T15:21:34.926Z,21.83
2024-01-19T15:24:07.777Z,25.60
2024-01-19T15:26:40.464Z,26.93
2024-01-19T15:29:14.759Z,18.40
2024-01-19T15:31:45.438Z,33.03
2024-01-19T15:34:15.567Z,22.70
2024-01-19T15:36:48.206Z,25.77
2024-01-19T15:39:18.292Z,25.20
2024-01-19T15:41:48.359Z,22.33
2024-01-19T15:44:18.667Z,33.90
2024-01-19T15:46:48.919Z,28.97
2024-01-19T15:49:19.143Z,28.20
2024-01-19T15:51:51.993Z,31.57
2024-01-19T15:54:23.076Z,33.73
2024-01-19T15:56:53.213Z,30.87
2024-01-19T15:59:23.510Z,28.63
2024-01-19T16:01:53.656Z,31.33
2024-01-19T16:04:23.702Z,32.60
2024-01-19T16:06:56.436Z,43.63
2024-01-19T16:09:26.571Z,33.70
2024-01-19T16:11:57.958Z,43.50
2024-01-19T16:14:28.832Z,45.47
2024-01-19T16:17:00.304Z,33.53
2024-01-19T16:19:30.412Z,35.80
2024-01-19T16:22:04.040Z,44.23
2024-01-19T16:24:34.467Z,41.70
2024-01-19T16:27:05.033Z,50.67
2024-01-19T16:29:35.280Z,46.57
2024-01-19T16:32:08.127Z,48.83
2024-01-19T16:34:38.855Z,41.50
2024-01-19T16:37:11.554Z,44.40
2024-01-19T16:39:43.952Z,44.33
2024-01-19T16:42:15.964Z,48.97
2024-01-19T16:44:46.124Z,40.70
2024-01-19T16:47:16.203Z,54.80
2024-01-19T16:49:46.366Z,47.10
2024-01-19T16:52:19.110Z,51.43
2024-01-19T16:54:50.132Z,46.85
2024-01-19T16:57:20.347Z,42.97
2024-01-19T16:59:50.432Z,56.93
2024-01-19T17:02:20.846Z,44.47
2024-01-19T17:04:51.046Z,42.70
2024-01-19T17:07:23.841Z,55.57
2024-01-19T17:10:02.191Z,59.87
2024-01-19T17:12:32.466Z,51.47
2024-01-19T17:15:02.799Z,46.00
2024-01-19T17:17:32.914Z,51.58
2024-01-19T17:20:03.541Z,47.67
2024-01-19T17:22:36.428Z,51.17
2024-01-19T17:25:07.421Z,50.87
2024-01-19T17:27:37.525Z,41.27
2024-01-19T17:30:09.019Z,54.20
2024-01-19T17:32:39.391Z,52.17
2024-01-19T17:35:13.378Z,56.28
2024-01-19T17:37:46.883Z,51.50
2024-01-19T17:40:17.641Z,60.80
2024-01-19T17:42:47.797Z,56.67
2024-01-19T17:45:22.328Z,56.83
2024-01-19T17:47:54.423Z,51.80
2024-01-19T17:50:25.106Z,52.08
2024-01-19T17:52:57.989Z,51.07
2024-01-19T17:55:28.163Z,57.80
2024-01-19T17:57:58.897Z,46.13
2024-01-19T18:00:29.047Z,56.67
2024-01-19T18:03:00.460Z,47.80
2024-01-19T18:05:30.647Z,47.80
2024-01-19T18:08:03.770Z,44.97
2024-01-19T18:10:34.037Z,54.00
2024-01-19T18:13:04.833Z,47.83
2024-01-19T18:15:35.059Z,54.77
2024-01-19T18:18:08.123Z,44.90
2024-01-19T18:20:41.756Z,44.53
2024-01-19T18:23:14.723Z,49.30
2024-01-19T18:25:45.850Z,44.38
2024-01-19T18:28:16.133Z,45.92
2024-01-19T18:30:46.246Z,42.45
2024-01-19T18:33:16.791Z,44.13
2024-01-19T18:35:47.211Z,42.07
2024-01-19T18:38:20.380Z,40.93
2024-01-19T18:40:50.518Z,44.33
2024-01-19T18:43:20.698Z,42.00
2024-01-19T18:45:50.804Z,38.63
2024-01-19T18:48:20.973Z,38.70
2024-01-19T18:50:51.095Z,41.90
2024-01-19T18:53:23.896Z,44.83
2024-01-19T18:55:54.925Z,45.05
2024-01-19T18:58:25.324Z,42.90
2024-01-19T19:00:55.678Z,43.30
2024-01-19T19:03:26.202Z,41.97
2024-01-19T19:05:56.467Z,47.67
2024-01-19T19:08:29.269Z,39.50
2024-01-19T19:10:59.554Z,42.47
2024-01-19T19:13:32.381Z,40.67
2024-01-19T19:16:03.403Z,41.50
2024-01-19T19:18:33.965Z,42.67
2024-01-19T19:21:04.102Z,41.53
2024-01-19T19:23:36.768Z,39.80
2024-01-19T19:26:14.413Z,38.53
2024-01-19T19:28:44.976Z,40.70
2024-01-19T19:31:15.418Z,40.47
2024-01-19T19:33:45.517Z,47.10
2024-01-19T19:36:16.361Z,42.80
2024-01-19T19:38:49.043Z,40.83
2024-01-19T19:41:19.767Z,44.97
2024-01-19T19:43:49.898Z,44.30
2024-01-19T19:46:20.256Z,38.47
2024-01-19T19:48:50.449Z,47.10
2024-01-19T19:51:20.542Z,46.50
2024-01-19T19:53:53.240Z,45.27
2024-01-19T19:56:23.382Z,48.58
2024-01-19T19:58:53.689Z,45.27
2024-01-19T20:01:26.153Z,40.38
2024-01-19T20:03:56.306Z,46.97
2024-01-19T20:06:26.792Z,43.90
2024-01-19T20:08:59.543Z,46.70
2024-01-19T20:11:29.910Z,45.28
2024-01-19T20:14:00.429Z,46.65
2024-01-19T20:16:30.668Z,45.90
2024-01-19T20:19:00.971Z,49.13
2024-01-19T20:21:31.100Z,43.72
2024-01-19T20:24:03.878Z,48.88
2024-01-19T20:26:34.998Z,39.80
2024-01-19T20:29:07.175Z,49.15
2024-01-19T20:31:37.365Z,48.00
2024-01-19T20:34:07.552Z,45.13
2024-01-19T20:36:38.167Z,49.70
2024-01-19T20:39:10.992Z,44.88
2024-01-19T20:41:41.182Z,46.05
2024-01-19T20:44:12.453Z,49.42
2024-01-19T20:46:43.906Z,44.50
2024-01-19T20:49:14.177Z,49.55
2024-01-19T20:51:44.248Z,46.80
2024-01-19T20:54:16.985Z,51.25
2024-01-19T20:56:47.093Z,46.60
2024-01-19T20:59:17.680Z,44.08
2024-01-19T21:01:48.226Z,51.78
2024-01-19T21:04:18.692Z,50.45
2024-01-19T21:06:49.206Z,47.85
2024-01-19T21:09:22.377Z,48.70
2024-01-19T21:11:52.644Z,48.97
2024-01-19T21:14:23.010Z,47.33
2024-01-19T21:16:54.247Z,53.13
2024-01-19T21:19:24.476Z,52.92
2024-01-19T21:21:55.125Z,50.70
2024-01-19T21:24:27.824Z,48.00
2024-01-19T21:26:57.886Z,55.92
2024-01-19T21:29:28.005Z,45.72
2024-01-19T21:31:58.154Z,60.38
2024-01-19T21:34:28.361Z,50.72
2024-01-19T21:36:58.534Z,51.10
2024-01-19T21:39:31.519Z,54.05
2024-01-19T21:42:02.542Z,46.60
2024-01-19T21:44:32.937Z,49.25
2024-01-19T21:47:05.306Z,48.22
2024-01-19T21:49:35.722Z,54.42
2024-01-19T21:52:06.628Z,49.08
2024-01-19T21:54:39.424Z,52.97
2024-01-19T21:57:09.675Z,48.25
2024-01-19T21:59:41.293Z,45.92
2024-01-19T22:02:11.873Z,52.03
2024-01-19T22:04:43.260Z,51.85
2024-01-19T22:07:14.961Z,51.40
2024-01-19T22:09:48.032Z,59.58
2024-01-19T22:12:18.240Z,56.63
2024-01-19T22:14:48.590Z,50.92
2024-01-19T22:17:18.716Z,50.55
2024-01-19T22:19:50.175Z,55.67
2024-01-19T22:22:20.361Z,51.88
2024-01-19T22:24:52.999Z,52.58
2024-01-19T22:27:23.072Z,55.20
2024-01-19T22:29:53.201Z,51.33
2024-01-19T22:32:23.650Z,52.85
2024-01-19T22:34:54.210Z,59.55
2024-01-19T22:37:24.453Z,51.03
2024-01-19T22:39:57.183Z,61.65
2024-01-19T22:42:27.255Z,64.60
2024-01-19T22:44:57.381Z,65.10
2024-01-19T22:47:27.610Z,58.40
2024-01-19T22:49:57.840Z,58.28
2024-01-19T22:52:28.045Z,47.40
2024-01-19T22:55:00.770Z,51.60
2024-01-19T22:57:31.714Z,57.50
2024-01-19T23:00:01.879Z,56.40
2024-01-19T23:02:35.480Z,63.40
2024-01-19T23:05:10.829Z,56.53
2024-01-19T23:07:41.219Z,54.15
2024-01-19T23:10:15.142Z,64.45
2024-01-19T23:12:45.280Z,56.47
2024-01-19T23:15:19.244Z,51.75
2024-01-19T23:17:49.805Z,60.22
2024-01-19T23:20:20.344Z,57.75
2024-01-19T23:22:50.566Z,54.28
2024-01-19T23:25:30.381Z,53.30
2024-01-19T23:28:07.054Z,62.88
2024-01-19T23:30:37.654Z,58.60
2024-01-19T23:33:08.332Z,59.33
2024-01-19T23:35:38.728Z,60.08
2024-01-19T23:38:09.263Z,63.63
2024-01-19T23:40:42.057Z,58.33
2024-01-19T23:43:13.239Z,58.22
2024-01-19T23:45:43.420Z,55.22
2024-01-19T23:48:13.617Z,61.13
2024-01-19T23:50:43.746Z,58.50
2024-01-19T23:53:13.912Z,55.35
2024-01-19T23:55:46.817Z,60.33
2024-01-19T23:58:16.896Z,62.65
